sensor_id;sensor_type;location;lat;lon;timestamp;pressure;altitude;pressure_sealevel;temperature;humidity
77281;BME280;66339;47.262;17.144;2023-02-26T00:01:45;99145.69;;;20.05;43.62
77281;BME280;66339;47.262;17.144;2023-02-26T00:04:16;99147.59;;;20.05;43.70
77281;BME280;66339;47.262;17.144;2023-02-26T00:06:46;99157.53;;;20.04;43.63
77281;BME280;66339;47.262;17.144;2023-02-26T00:09:13;99159.72;;;20.02;43.80
77281;BME280;66339;47.262;17.144;2023-02-26T00:11:40;99146.31;;;20.02;43.61
77281;BME280;66339;47.262;17.144;2023-02-26T00:14:11;99134.28;;;20.00;43.60
77281;BME280;66339;47.262;17.144;2023-02-26T00:16:40;99158.75;;;19.98;43.67
77281;BME280;66339;47.262;17.144;2023-02-26T00:19:13;99187.16;;;19.99;43.64
77281;BME280;66339;47.262;17.144;2023-02-26T00:21:41;99181.78;;;19.99;43.64
77281;BME280;66339;47.262;17.144;2023-02-26T00:24:08;99161.44;;;19.98;43.63
77281;BME280;66339;47.262;17.144;2023-02-26T00:26:41;99161.75;;;19.97;43.64
77281;BME280;66339;47.262;17.144;2023-02-26T00:29:11;99157.16;;;19.97;43.62
77281;BME280;66339;47.262;17.144;2023-02-26T00:31:41;99155.56;;;19.96;43.59
77281;BME280;66339;47.262;17.144;2023-02-26T00:34:12;99154.00;;;19.95;43.73
77281;BME280;66339;47.262;17.144;2023-02-26T00:42:14;99147.34;;;19.93;43.58
77281;BME280;66339;47.262;17.144;2023-02-26T00:44:44;99154.59;;;19.92;43.63
77281;BME280;66339;47.262;17.144;2023-02-26T00:55:15;99133.75;;;19.89;43.53
77281;BME280;66339;47.262;17.144;2023-02-26T00:57:45;99121.41;;;19.88;43.52
77281;BME280;66339;47.262;17.144;2023-02-26T01:00:15;99128.41;;;19.89;43.50
77281;BME280;66339;47.262;17.144;2023-02-26T01:02:43;99125.22;;;19.87;43.47
77281;BME280;66339;47.262;17.144;2023-02-26T01:05:14;99140.53;;;19.86;43.45
77281;BME280;66339;47.262;17.144;2023-02-26T01:10:20;99145.09;;;19.86;43.43
77281;BME280;66339;47.262;17.144;2023-02-26T01:12:54;99145.09;;;19.86;43.41
77281;BME280;66339;47.262;17.144;2023-02-26T01:15:23;99138.16;;;19.85;43.41
77281;BME280;66339;47.262;17.144;2023-02-26T01:18:06;99138.16;;;19.85;43.51
77281;BME280;66339;47.262;17.144;2023-02-26T01:20:51;99154.87;;;19.82;43.45
77281;BME280;66339;47.262;17.144;2023-02-26T01:23:24;99184.06;;;19.83;43.44
77281;BME280;66339;47.262;17.144;2023-02-26T01:26:02;99176.31;;;19.82;43.45
77281;BME280;66339;47.262;17.144;2023-02-26T01:28:36;99173.66;;;19.82;43.39
77281;BME280;66339;47.262;17.144;2023-02-26T01:31:14;99186.56;;;19.80;43.40
77281;BME280;66339;47.262;17.144;2023-02-26T01:33:58;99161.63;;;19.79;43.48
77281;BME280;66339;47.262;17.144;2023-02-26T01:36:36;99127.06;;;19.78;43.38
77281;BME280;66339;47.262;17.144;2023-02-26T01:44:58;99120.12;;;19.77;43.41
77281;BME280;66339;47.262;17.144;2023-02-26T01:50:15;99124.66;;;19.76;43.34
77281;BME280;66339;47.262;17.144;2023-02-26T01:55:23;99159.84;;;19.75;43.41
77281;BME280;66339;47.262;17.144;2023-02-26T01:57:55;99150.22;;;19.74;43.43
77281;BME280;66339;47.262;17.144;2023-02-26T02:00:26;99144.88;;;19.74;43.40
77281;BME280;66339;47.262;17.144;2023-02-26T02:02:53;99159.34;;;19.73;43.41
77281;BME280;66339;47.262;17.144;2023-02-26T02:05:32;99171.97;;;19.72;43.56
77281;BME280;66339;47.262;17.144;2023-02-26T02:08:01;99188.06;;;19.72;43.36
77281;BME280;66339;47.262;17.144;2023-02-26T02:10:28;99187.28;;;19.72;43.36
77281;BME280;66339;47.262;17.144;2023-02-26T02:24:55;99209.34;;;19.69;43.31
77281;BME280;66339;47.262;17.144;2023-02-26T02:27:18;99242.66;;;19.68;43.38
77281;BME280;66339;47.262;17.144;2023-02-26T02:32:45;99174.59;;;19.64;43.36
77281;BME280;66339;47.262;17.144;2023-02-26T02:35:38;99155.81;;;19.64;43.29
77281;BME280;66339;47.262;17.144;2023-02-26T02:38:43;99146.19;;;19.62;43.30
77281;BME280;66339;47.262;17.144;2023-02-26T02:41:18;99161.50;;;19.62;43.32
77281;BME280;66339;47.262;17.144;2023-02-26T02:43:46;99168.75;;;19.61;43.28
77281;BME280;66339;47.262;17.144;2023-02-26T02:46:26;99182.19;;;19.61;43.31
77281;BME280;66339;47.262;17.144;2023-02-26T02:49:01;99185.91;;;19.60;43.29
77281;BME280;66339;47.262;17.144;2023-02-26T02:51:41;99230.72;;;19.60;43.29
77281;BME280;66339;47.262;17.144;2023-02-26T02:54:23;99217.63;;;19.58;43.29
77281;BME280;66339;47.262;17.144;2023-02-26T02:57:02;99209.56;;;19.58;43.27
77281;BME280;66339;47.262;17.144;2023-02-26T03:04:40;99186.53;;;19.57;43.24
77281;BME280;66339;47.262;17.144;2023-02-26T03:07:11;99200.22;;;19.56;43.22
77281;BME280;66339;47.262;17.144;2023-02-26T03:09:39;99220.41;;;19.53;43.24
77281;BME280;66339;47.262;17.144;2023-02-26T03:12:10;99214.75;;;19.55;43.23
77281;BME280;66339;47.262;17.144;2023-02-26T03:14:38;99223.91;;;19.54;43.26
77281;BME280;66339;47.262;17.144;2023-02-26T03:17:10;99223.09;;;19.53;43.24
77281;BME280;66339;47.262;17.144;2023-02-26T03:23:07;99189.94;;;19.49;43.19
77281;BME280;66339;47.262;17.144;2023-02-26T03:25:50;99213.56;;;19.47;43.27
77281;BME280;66339;47.262;17.144;2023-02-26T03:28:37;99244.16;;;19.46;43.28
77281;BME280;66339;47.262;17.144;2023-02-26T03:34:42;99212.00;;;19.46;43.18
77281;BME280;66339;47.262;17.144;2023-02-26T03:36:55;99235.62;;;19.44;43.24
77281;BME280;66339;47.262;17.144;2023-02-26T03:39:30;99256.78;;;19.46;43.16
77281;BME280;66339;47.262;17.144;2023-02-26T03:42:34;99262.44;;;19.44;43.19
77281;BME280;66339;47.262;17.144;2023-02-26T03:45:32;99262.44;;;19.44;43.26
77281;BME280;66339;47.262;17.144;2023-02-26T03:48:03;99281.22;;;19.44;43.22
77281;BME280;66339;47.262;17.144;2023-02-26T03:50:36;99280.72;;;19.42;43.18
77281;BME280;66339;47.262;17.144;2023-02-26T03:53:09;99268.41;;;19.41;43.23
77281;BME280;66339;47.262;17.144;2023-02-26T03:55:45;99273.75;;;19.41;43.20
77281;BME280;66339;47.262;17.144;2023-02-26T03:58:20;99258.78;;;19.40;43.14
77281;BME280;66339;47.262;17.144;2023-02-26T04:00:56;99269.81;;;19.38;43.22
77281;BME280;66339;47.262;17.144;2023-02-26T04:03:34;99275.97;;;19.39;43.16
77281;BME280;66339;47.262;17.144;2023-02-26T04:06:04;99275.16;;;19.38;43.17
77281;BME280;66339;47.262;17.144;2023-02-26T04:08:31;99288.84;;;19.37;43.14
77281;BME280;66339;47.262;17.144;2023-02-26T04:11:12;99287.28;;;19.36;43.15
77281;BME280;66339;47.262;17.144;2023-02-26T04:13:44;99291.84;;;19.35;43.16
77281;BME280;66339;47.262;17.144;2023-02-26T04:16:13;99299.59;;;19.37;43.09
77281;BME280;66339;47.262;17.144;2023-02-26T04:18:46;99293.75;;;19.35;43.13
77281;BME280;66339;47.262;17.144;2023-02-26T04:21:18;99297.53;;;19.34;43.13
77281;BME280;66339;47.262;17.144;2023-02-26T04:23:49;99300.19;;;19.34;43.16
77281;BME280;66339;47.262;17.144;2023-02-26T04:26:16;99296.41;;;19.35;43.09
77281;BME280;66339;47.262;17.144;2023-02-26T04:28:44;99277.66;;;19.35;43.05
77281;BME280;66339;47.262;17.144;2023-02-26T04:31:17;99287.88;;;19.33;43.07
77281;BME280;66339;47.262;17.144;2023-02-26T04:33:47;99291.66;;;19.32;43.09
77281;BME280;66339;47.262;17.144;2023-02-26T04:36:15;99281.72;;;19.32;43.08
77281;BME280;66339;47.262;17.144;2023-02-26T04:38:43;99275.09;;;19.30;43.10
77281;BME280;66339;47.262;17.144;2023-02-26T04:41:13;99292.75;;;19.31;43.05
77281;BME280;66339;47.262;17.144;2023-02-26T04:43:41;99291.19;;;19.30;43.09
77281;BME280;66339;47.262;17.144;2023-02-26T04:46:16;99299.22;;;19.30;43.08
77281;BME280;66339;47.262;17.144;2023-02-26T04:48:47;99309.13;;;19.29;43.05
77281;BME280;66339;47.262;17.144;2023-02-26T04:51:15;99297.59;;;19.29;43.06
77281;BME280;66339;47.262;17.144;2023-02-26T04:53:42;99312.09;;;19.28;43.07
77281;BME280;66339;47.262;17.144;2023-02-26T04:56:13;99332.78;;;19.27;43.06
77281;BME280;66339;47.262;17.144;2023-02-26T04:58:40;99325.81;;;19.26;43.07
77281;BME280;66339;47.262;17.144;2023-02-26T05:01:13;99317.00;;;19.26;43.06
77281;BME280;66339;47.262;17.144;2023-02-26T05:03:44;99312.69;;;19.25;43.07
77281;BME280;66339;47.262;17.144;2023-02-26T05:06:19;99309.22;;;19.24;43.01
77281;BME280;66339;47.262;17.144;2023-02-26T05:08:53;99311.12;;;19.24;43.01
77281;BME280;66339;47.262;17.144;2023-02-26T05:11:26;99305.28;;;19.22;43.00
77281;BME280;66339;47.262;17.144;2023-02-26T05:13:54;99320.53;;;19.21;43.08
77281;BME280;66339;47.262;17.144;2023-02-26T05:16:21;99308.75;;;19.22;43.11
77281;BME280;66339;47.262;17.144;2023-02-26T05:18:48;99319.94;;;19.24;43.05
77281;BME280;66339;47.262;17.144;2023-02-26T05:21:21;99329.87;;;19.24;43.07
77281;BME280;66339;47.262;17.144;2023-02-26T05:23:51;99339.22;;;19.26;43.19
77281;BME280;66339;47.262;17.144;2023-02-26T05:26:20;99337.34;;;19.27;43.19
77281;BME280;66339;47.262;17.144;2023-02-26T05:28:53;99341.59;;;19.28;43.24
77281;BME280;66339;47.262;17.144;2023-02-26T05:31:19;99357.69;;;19.28;43.20
77281;BME280;66339;47.262;17.144;2023-02-26T05:33:49;99368.94;;;19.30;42.93
77281;BME280;66339;47.262;17.144;2023-02-26T05:36:22;99378.03;;;19.29;42.23
77281;BME280;66339;47.262;17.144;2023-02-26T05:38:50;99377.56;;;19.27;41.70
77281;BME280;66339;47.262;17.144;2023-02-26T05:41:23;99369.00;;;19.25;41.70
77281;BME280;66339;47.262;17.144;2023-02-26T05:43:53;99365.84;;;19.23;41.61
77281;BME280;66339;47.262;17.144;2023-02-26T05:46:25;99365.84;;;19.23;41.37
77281;BME280;66339;47.262;17.144;2023-02-26T05:48:56;99350.84;;;19.22;41.35
77281;BME280;66339;47.262;17.144;2023-02-26T05:51:26;99357.28;;;19.21;41.38
77281;BME280;66339;47.262;17.144;2023-02-26T05:53:57;99387.06;;;19.19;41.18
77281;BME280;66339;47.262;17.144;2023-02-26T05:56:31;99391.13;;;19.17;41.52
77281;BME280;66339;47.262;17.144;2023-02-26T05:59:03;99376.16;;;19.16;41.87
77281;BME280;66339;47.262;17.144;2023-02-26T06:01:33;99373.47;;;19.16;41.92
77281;BME280;66339;47.262;17.144;2023-02-26T06:04:06;99375.84;;;19.17;42.20
77281;BME280;66339;47.262;17.144;2023-02-26T06:06:33;99380.62;;;19.20;42.24
77281;BME280;66339;47.262;17.144;2023-02-26T06:09:06;99393.75;;;19.22;42.41
77281;BME280;66339;47.262;17.144;2023-02-26T06:11:43;99405.47;;;19.26;42.79
77281;BME280;66339;47.262;17.144;2023-02-26T06:14:14;99419.34;;;19.28;42.95
77281;BME280;66339;47.262;17.144;2023-02-26T06:16:44;99420.94;;;19.29;43.32
77281;BME280;66339;47.262;17.144;2023-02-26T06:19:14;99429.97;;;19.33;43.41
77281;BME280;66339;47.262;17.144;2023-02-26T06:21:47;99433.66;;;19.37;43.36
77281;BME280;66339;47.262;17.144;2023-02-26T06:24:20;99436.84;;;19.39;43.58
77281;BME280;66339;47.262;17.144;2023-02-26T06:26:51;99423.13;;;19.41;43.68
77281;BME280;66339;47.262;17.144;2023-02-26T06:29:24;99420.19;;;19.42;43.72
77281;BME280;66339;47.262;17.144;2023-02-26T06:31:53;99417.97;;;19.44;43.70
77281;BME280;66339;47.262;17.144;2023-02-26T06:34:26;99409.94;;;19.44;43.70
77281;BME280;66339;47.262;17.144;2023-02-26T06:37:01;99406.16;;;19.45;43.66
77281;BME280;66339;47.262;17.144;2023-02-26T06:39:31;99392.75;;;19.45;43.64
77281;BME280;66339;47.262;17.144;2023-02-26T06:42:02;99405.09;;;19.46;43.61
77281;BME280;66339;47.262;17.144;2023-02-26T06:44:36;99401.59;;;19.46;43.59
77281;BME280;66339;47.262;17.144;2023-02-26T06:47:04;99412.03;;;19.47;43.62
77281;BME280;66339;47.262;17.144;2023-02-26T06:49:31;99421.97;;;19.47;43.54
77281;BME280;66339;47.262;17.144;2023-02-26T06:51:59;99429.22;;;19.46;43.65
77281;BME280;66339;47.262;17.144;2023-02-26T06:54:26;99431.91;;;19.46;43.68
77281;BME280;66339;47.262;17.144;2023-02-26T06:56:54;99432.38;;;19.48;43.75
77281;BME280;66339;47.262;17.144;2023-02-26T06:59:24;99442.84;;;19.50;43.85
77281;BME280;66339;47.262;17.144;2023-02-26T07:01:55;99447.56;;;19.53;43.85
77281;BME280;66339;47.262;17.144;2023-02-26T07:04:28;99453.75;;;19.53;44.06
77281;BME280;66339;47.262;17.144;2023-02-26T07:06:55;99464.19;;;19.55;44.14
77281;BME280;66339;47.262;17.144;2023-02-26T07:09:28;99466.28;;;19.58;44.37
77281;BME280;66339;47.262;17.144;2023-02-26T07:11:55;99467.06;;;19.58;44.19
77281;BME280;66339;47.262;17.144;2023-02-26T07:14:22;99465.50;;;19.57;44.16
77281;BME280;66339;47.262;17.144;2023-02-26T07:16:52;99465.19;;;19.59;44.15
77281;BME280;66339;47.262;17.144;2023-02-26T07:19:19;99465.97;;;19.59;44.14
77281;BME280;66339;47.262;17.144;2023-02-26T07:21:48;99468.66;;;19.59;44.43
77281;BME280;66339;47.262;17.144;2023-02-26T07:24:18;99469.75;;;19.58;44.24
77281;BME280;66339;47.262;17.144;2023-02-26T07:26:45;99474.03;;;19.59;44.16
77281;BME280;66339;47.262;17.144;2023-02-26T07:29:12;99481.78;;;19.61;44.29
77281;BME280;66339;47.262;17.144;2023-02-26T07:31:42;99472.69;;;19.62;44.21
77281;BME280;66339;47.262;17.144;2023-02-26T07:34:10;99476.63;;;19.65;44.03
77281;BME280;66339;47.262;17.144;2023-02-26T07:36:39;99474.47;;;19.67;43.88
77281;BME280;66339;47.262;17.144;2023-02-26T07:39:06;99463.41;;;19.68;43.77
77281;BME280;66339;47.262;17.144;2023-02-26T07:41:34;99438.38;;;19.73;43.72
77281;BME280;66339;47.262;17.144;2023-02-26T07:44:04;99458.19;;;19.77;43.72
77281;BME280;66339;47.262;17.144;2023-02-26T07:46:36;99495.12;;;19.80;43.80
77281;BME280;66339;47.262;17.144;2023-02-26T07:49:07;99498.00;;;19.83;44.00
77281;BME280;66339;47.262;17.144;2023-02-26T07:51:33;99493.94;;;19.86;44.17
77281;BME280;66339;47.262;17.144;2023-02-26T07:54:02;99500.31;;;19.90;44.39
77281;BME280;66339;47.262;17.144;2023-02-26T07:56:34;99491.37;;;19.95;44.27
77281;BME280;66339;47.262;17.144;2023-02-26T07:59:04;99500.72;;;19.97;44.27
77281;BME280;66339;47.262;17.144;2023-02-26T08:01:35;99511.94;;;19.99;44.39
77281;BME280;66339;47.262;17.144;2023-02-26T08:04:02;99501.72;;;20.01;44.31
77281;BME280;66339;47.262;17.144;2023-02-26T08:06:32;99510.25;;;20.03;44.22
77281;BME280;66339;47.262;17.144;2023-02-26T08:09:01;99506.50;;;20.04;44.16
77281;BME280;66339;47.262;17.144;2023-02-26T08:11:34;99505.37;;;20.05;44.14
77281;BME280;66339;47.262;17.144;2023-02-26T08:14:10;99507.47;;;20.08;44.07
77281;BME280;66339;47.262;17.144;2023-02-26T08:16:36;99517.12;;;20.09;44.15
77281;BME280;66339;47.262;17.144;2023-02-26T08:19:04;99513.84;;;20.13;44.18
77281;BME280;66339;47.262;17.144;2023-02-26T08:21:34;99515.41;;;20.14;44.20
77281;BME280;66339;47.262;17.144;2023-02-26T08:24:04;99522.88;;;20.17;43.99
77281;BME280;66339;47.262;17.144;2023-02-26T08:26:36;99523.69;;;20.17;43.30
77281;BME280;66339;47.262;17.144;2023-02-26T08:29:07;99523.38;;;20.19;43.43
77281;BME280;66339;47.262;17.144;2023-02-26T08:31:34;99498.09;;;20.20;43.58
77281;BME280;66339;47.262;17.144;2023-02-26T08:34:10;99501.28;;;20.22;43.68
77281;BME280;66339;47.262;17.144;2023-02-26T08:36:44;99509.84;;;20.24;43.64
77281;BME280;66339;47.262;17.144;2023-02-26T08:39:14;99524.88;;;20.25;43.58
77281;BME280;66339;47.262;17.144;2023-02-26T08:41:44;99530.72;;;20.27;43.53
77281;BME280;66339;47.262;17.144;2023-02-26T08:44:15;99528.53;;;20.29;43.44
77281;BME280;66339;47.262;17.144;2023-02-26T08:46:48;99536.09;;;20.27;43.16
77281;BME280;66339;47.262;17.144;2023-02-26T08:49:21;99523.16;;;20.29;43.31
77281;BME280;66339;47.262;17.144;2023-02-26T08:51:55;99514.00;;;20.30;43.21
77281;BME280;66339;47.262;17.144;2023-02-26T08:54:21;99495.72;;;20.32;43.29
77281;BME280;66339;47.262;17.144;2023-02-26T08:56:49;99477.41;;;20.34;43.32
77281;BME280;66339;47.262;17.144;2023-02-26T08:59:16;99494.03;;;20.36;43.37
77281;BME280;66339;47.262;17.144;2023-02-26T09:01:46;99520.87;;;20.36;43.40
77281;BME280;66339;47.262;17.144;2023-02-26T09:04:13;99535.91;;;20.37;43.41
77281;BME280;66339;47.262;17.144;2023-02-26T09:06:47;99523.25;;;20.38;43.42
77281;BME280;66339;47.262;17.144;2023-02-26T09:09:20;99521.34;;;20.38;43.50
77281;BME280;66339;47.262;17.144;2023-02-26T09:11:47;99544.44;;;20.39;43.55
77281;BME280;66339;47.262;17.144;2023-02-26T09:14:17;99546.84;;;20.41;43.48
77281;BME280;66339;47.262;17.144;2023-02-26T09:16:50;99549.22;;;20.42;43.38
77281;BME280;66339;47.262;17.144;2023-02-26T09:19:21;99549.22;;;20.42;43.33
77281;BME280;66339;47.262;17.144;2023-02-26T09:21:51;99557.00;;;20.44;43.32
77281;BME280;66339;47.262;17.144;2023-02-26T09:24:24;99572.28;;;20.43;43.26
77281;BME280;66339;47.262;17.144;2023-02-26T09:26:54;99586.22;;;20.45;43.21
77281;BME280;66339;47.262;17.144;2023-02-26T09:29:24;99586.22;;;20.45;43.07
77281;BME280;66339;47.262;17.144;2023-02-26T09:32:00;99596.97;;;20.45;42.83
77281;BME280;66339;47.262;17.144;2023-02-26T09:34:30;99593.19;;;20.46;42.94
77281;BME280;66339;47.262;17.144;2023-02-26T09:37:03;99609.81;;;20.48;43.12
77281;BME280;66339;47.262;17.144;2023-02-26T09:39:34;99598.28;;;20.48;43.38
77281;BME280;66339;47.262;17.144;2023-02-26T09:42:26;99607.63;;;20.50;43.63
77281;BME280;66339;47.262;17.144;2023-02-26T09:44:58;99606.31;;;20.48;43.51
77281;BME280;66339;47.262;17.144;2023-02-26T09:47:32;99611.69;;;20.48;43.39
77281;BME280;66339;47.262;17.144;2023-02-26T09:50:18;99617.88;;;20.48;43.28
77281;BME280;66339;47.262;17.144;2023-02-26T09:52:58;99622.66;;;20.51;43.17
77281;BME280;66339;47.262;17.144;2023-02-26T09:55:39;99617.28;;;20.51;43.27
77281;BME280;66339;47.262;17.144;2023-02-26T09:58:30;99623.66;;;20.55;43.40
77281;BME280;66339;47.262;17.144;2023-02-26T10:17:24;99636.41;;;20.64;43.68
77281;BME280;66339;47.262;17.144;2023-02-26T10:20:14;99639.28;;;20.67;43.51
77281;BME280;66339;47.262;17.144;2023-02-26T10:26:04;99646.44;;;20.72;43.61
77281;BME280;66339;47.262;17.144;2023-02-26T10:34:07;99654.69;;;20.75;43.27
77281;BME280;66339;47.262;17.144;2023-02-26T10:37:15;99666.25;;;20.76;43.47
77281;BME280;66339;47.262;17.144;2023-02-26T10:49:05;99659.06;;;20.85;43.98
77281;BME280;66339;47.262;17.144;2023-02-26T10:51:38;99660.38;;;20.88;44.08
77281;BME280;66339;47.262;17.144;2023-02-26T10:54:30;99664.31;;;20.90;44.08
77281;BME280;66339;47.262;17.144;2023-02-26T10:57:19;99660.84;;;20.90;44.11
77281;BME280;66339;47.262;17.144;2023-02-26T10:59:51;99655.78;;;20.88;43.99
77281;BME280;66339;47.262;17.144;2023-02-26T11:02:45;99655.19;;;20.91;43.81
77281;BME280;66339;47.262;17.144;2023-02-26T11:05:17;99670.00;;;20.89;43.50
77281;BME280;66339;47.262;17.144;2023-02-26T11:07:56;99666.22;;;20.90;43.43
77281;BME280;66339;47.262;17.144;2023-02-26T11:10:33;99670.31;;;20.87;43.53
77281;BME280;66339;47.262;17.144;2023-02-26T11:13:03;99667.63;;;20.87;43.22
77281;BME280;66339;47.262;17.144;2023-02-26T11:15:33;99671.13;;;20.88;43.21
77281;BME280;66339;47.262;17.144;2023-02-26T11:18:03;99676.19;;;20.89;43.42
77281;BME280;66339;47.262;17.144;2023-02-26T11:20:41;99686.94;;;20.89;43.55
77281;BME280;66339;47.262;17.144;2023-02-26T11:23:15;99681.56;;;20.89;43.36
77281;BME280;66339;47.262;17.144;2023-02-26T11:25:46;99684.56;;;20.88;42.83
77281;BME280;66339;47.262;17.144;2023-02-26T11:28:29;99669.50;;;20.87;42.88
77281;BME280;66339;47.262;17.144;2023-02-26T11:31:00;99662.84;;;20.84;43.36
77281;BME280;66339;47.262;17.144;2023-02-26T11:33:39;99663.66;;;20.84;43.75
77281;BME280;66339;47.262;17.144;2023-02-26T11:36:24;99672.63;;;20.80;44.12
77281;BME280;66339;47.262;17.144;2023-02-26T11:39:02;99672.63;;;20.80;44.18
77281;BME280;66339;47.262;17.144;2023-02-26T11:41:37;99676.41;;;20.79;44.33
77281;BME280;66339;47.262;17.144;2023-02-26T11:44:41;99684.75;;;20.77;44.24
77281;BME280;66339;47.262;17.144;2023-02-26T11:47:13;99682.38;;;20.76;44.20
77281;BME280;66339;47.262;17.144;2023-02-26T11:49:54;99683.16;;;20.76;43.92
77281;BME280;66339;47.262;17.144;2023-02-26T11:52:42;99690.44;;;20.76;43.42
77281;BME280;66339;47.262;17.144;2023-02-26T11:55:28;99689.34;;;20.77;43.51
77281;BME280;66339;47.262;17.144;2023-02-26T11:57:59;99687.44;;;20.77;43.19
77281;BME280;66339;47.262;17.144;2023-02-26T12:00:34;99694.72;;;20.77;42.62
77281;BME280;66339;47.262;17.144;2023-02-26T12:03:09;99693.12;;;20.76;41.98
77281;BME280;66339;47.262;17.144;2023-02-26T12:05:44;99683.44;;;20.75;41.95
77281;BME280;66339;47.262;17.144;2023-02-26T12:08:34;99681.84;;;20.74;41.13
77281;BME280;66339;47.262;17.144;2023-02-26T12:16:55;99689.03;;;20.78;41.91
77281;BME280;66339;47.262;17.144;2023-02-26T12:28:11;99691.62;;;20.83;41.88
77281;BME280;66339;47.262;17.144;2023-02-26T12:56:15;99725.56;;;20.79;41.59
77281;BME280;66339;47.262;17.144;2023-02-26T13:22:05;99732.50;;;20.67;40.80
77281;BME280;66339;47.262;17.144;2023-02-26T13:24:47;99740.88;;;20.65;40.75
77281;BME280;66339;47.262;17.144;2023-02-26T13:27:21;99750.03;;;20.64;40.74
77281;BME280;66339;47.262;17.144;2023-02-26T13:32:37;99744.47;;;20.61;40.60
77281;BME280;66339;47.262;17.144;2023-02-26T13:35:15;99753.62;;;20.59;40.48
77281;BME280;66339;47.262;17.144;2023-02-26T13:38:00;99759.00;;;20.59;40.48
77281;BME280;66339;47.262;17.144;2023-02-26T13:40:40;99762.75;;;20.58;40.54
77281;BME280;66339;47.262;17.144;2023-02-26T13:43:19;99764.97;;;20.56;40.72
77281;BME280;66339;47.262;17.144;2023-02-26T13:46:05;99768.12;;;20.58;40.94
77281;BME280;66339;47.262;17.144;2023-02-26T13:48:40;99771.34;;;20.61;41.06
77281;BME280;66339;47.262;17.144;2023-02-26T13:54:07;99767.53;;;20.62;40.78
77281;BME280;66339;47.262;17.144;2023-02-26T14:04:27;99773.50;;;20.58;40.10
77281;BME280;66339;47.262;17.144;2023-02-26T14:07:04;99778.09;;;20.58;40.14
77281;BME280;66339;47.262;17.144;2023-02-26T14:09:55;99784.25;;;20.58;40.07
77281;BME280;66339;47.262;17.144;2023-02-26T14:12:34;99779.97;;;20.57;40.02
77281;BME280;66339;47.262;17.144;2023-02-26T14:17:49;99790.72;;;20.57;39.91
77281;BME280;66339;47.262;17.144;2023-02-26T14:20:41;99790.72;;;20.57;39.91
77281;BME280;66339;47.262;17.144;2023-02-26T14:25:54;99788.56;;;20.59;39.67
77281;BME280;66339;47.262;17.144;2023-02-26T14:31:13;99801.16;;;20.59;39.77
77281;BME280;66339;47.262;17.144;2023-02-26T14:37:03;99793.94;;;20.59;39.93
77281;BME280;66339;47.262;17.144;2023-02-26T14:39:38;99798.78;;;20.57;40.05
77281;BME280;66339;47.262;17.144;2023-02-26T14:42:28;99795.00;;;20.58;40.38
77281;BME280;66339;47.262;17.144;2023-02-26T14:45:17;99800.38;;;20.58;40.63
77281;BME280;66339;47.262;17.144;2023-02-26T14:47:54;99798.78;;;20.57;41.00
77281;BME280;66339;47.262;17.144;2023-02-26T14:53:35;99815.69;;;20.58;41.58
77281;BME280;66339;47.262;17.144;2023-02-26T14:56:22;99817.28;;;20.59;42.29
77281;BME280;66339;47.262;17.144;2023-02-26T14:59:14;99823.50;;;20.59;42.70
77281;BME280;66339;47.262;17.144;2023-02-26T15:04:50;99825.06;;;20.61;42.85
77281;BME280;66339;47.262;17.144;2023-02-26T15:07:37;99821.28;;;20.62;42.89
77281;BME280;66339;47.262;17.144;2023-02-26T15:19:07;99844.38;;;20.63;43.21
77281;BME280;66339;47.262;17.144;2023-02-26T15:21:55;99851.94;;;20.61;42.88
77281;BME280;66339;47.262;17.144;2023-02-26T15:24:31;99860.81;;;20.61;43.01
77281;BME280;66339;47.262;17.144;2023-02-26T15:27:05;99864.28;;;20.62;43.14
77281;BME280;66339;47.262;17.144;2023-02-26T15:29:40;99860.81;;;20.61;42.73
77281;BME280;66339;47.262;17.144;2023-02-26T15:32:26;99867.47;;;20.64;42.76
77281;BME280;66339;47.262;17.144;2023-02-26T15:35:19;99873.66;;;20.64;43.07
77281;BME280;66339;47.262;17.144;2023-02-26T15:37:56;99882.50;;;20.65;43.18
77281;BME280;66339;47.262;17.144;2023-02-26T15:40:29;99890.56;;;20.65;42.76
77281;BME280;66339;47.262;17.144;2023-02-26T15:43:09;99897.84;;;20.64;42.68
77281;BME280;66339;47.262;17.144;2023-02-26T15:45:50;99882.78;;;20.63;42.72
77281;BME280;66339;47.262;17.144;2023-02-26T15:48:33;99892.75;;;20.63;42.55
77281;BME280;66339;47.262;17.144;2023-02-26T15:51:03;99889.56;;;20.61;42.18
77281;BME280;66339;47.262;17.144;2023-02-26T15:53:53;99902.47;;;20.58;42.12
77281;BME280;66339;47.262;17.144;2023-02-26T15:56:25;99892.34;;;20.55;42.39
77281;BME280;66339;47.262;17.144;2023-02-26T15:59:10;99886.75;;;20.52;42.42
77281;BME280;66339;47.262;17.144;2023-02-26T16:01:46;99897.78;;;20.50;43.39
77281;BME280;66339;47.262;17.144;2023-02-26T16:04:18;99902.03;;;20.51;43.56
77281;BME280;66339;47.262;17.144;2023-02-26T16:06:51;99909.84;;;20.53;43.62
77281;BME280;66339;47.262;17.144;2023-02-26T16:09:43;99915.22;;;20.53;43.92
77281;BME280;66339;47.262;17.144;2023-02-26T16:15:02;99921.69;;;20.52;43.92
77281;BME280;66339;47.262;17.144;2023-02-26T16:17:41;99919.78;;;20.52;43.88
77281;BME280;66339;47.262;17.144;2023-02-26T16:20:25;99925.16;;;20.52;43.76
77281;BME280;66339;47.262;17.144;2023-02-26T16:23:09;99934.81;;;20.53;43.80
77281;BME280;66339;47.262;17.144;2023-02-26T16:25:51;99942.88;;;20.53;43.70
77281;BME280;66339;47.262;17.144;2023-02-26T16:28:22;99944.47;;;20.54;44.29
77281;BME280;66339;47.262;17.144;2023-02-26T16:30:54;99959.50;;;20.55;44.39
77281;BME280;66339;47.262;17.144;2023-02-26T16:33:24;99967.56;;;20.55;44.30
77281;BME280;66339;47.262;17.144;2023-02-26T16:36:14;99967.84;;;20.54;44.13
77281;BME280;66339;47.262;17.144;2023-02-26T16:38:59;99974.31;;;20.53;43.81
77281;BME280;66339;47.262;17.144;2023-02-26T16:41:33;99975.09;;;20.53;43.78